Time;durP1;ratioP1;P1;durP2;ratioP2;P2;SDS_P1;SDS_P2;PMS_P1;PMS_P2;Temp;Humidity;BMP_temperature;BMP_pressure;BME280_temperature;BME280_humidity;BME280_pressure;Samples;Min_cycle;Max_cycle;Signal;HPM_P1;HPM_P2
2022/11/19 00:00:33;;;;;;;45.90;22.10;;;;;;;-2.24;79.24;97864.53;420649;1299;107574;-39
2022/11/19 00:10:42;;;;;;;55.20;25.50;;;;;;;-2.30;79.39;97858.75;420764;1299;99341;-41
2022/11/19 00:20:49;;;;;;;48.60;23.50;;;;;;;-2.36;79.63;97870.84;420637;1298;110819;-39
2022/11/19 00:31:00;;;;;;;47.90;21.80;;;;;;;-2.41;79.65;97880.36;420726;1292;106964;-40
2022/11/19 00:41:08;;;;;;;61.80;25.70;;;;;;;-2.39;79.65;97884.95;420607;1285;97977;-41
2022/11/19 00:51:17;;;;;;;53.10;23.60;;;;;;;-2.31;79.91;97892.20;420717;1302;107424;-38
2022/11/19 01:01:25;;;;;;;25.70;16.10;;;;;;;-2.23;80.07;97899.77;420760;1299;99098;-40
2022/11/19 01:11:35;;;;;;;33.70;18.90;;;;;;;-2.52;80.09;97910.67;420696;1301;110802;-40
2022/11/19 01:21:42;;;;;;;22.80;14.00;;;;;;;-2.89;80.38;97907.77;420725;1291;108438;-41
2022/11/19 01:31:49;;;;;;;19.70;13.60;;;;;;;-3.25;80.26;97912.73;420675;1301;98050;-40
2022/11/19 01:41:56;;;;;;;16.90;12.60;;;;;;;-3.37;80.53;97914.86;420601;1300;112019;-41
2022/11/19 01:52:03;;;;;;;26.10;16.50;;;;;;;-3.33;80.69;97917.20;420663;1290;107316;-39
2022/11/19 02:02:11;;;;;;;27.70;16.30;;;;;;;-3.33;80.93;97916.17;420854;1297;99265;-41
2022/11/19 02:12:21;;;;;;;24.50;16.90;;;;;;;-3.43;80.96;97923.75;421251;1270;108628;-40
2022/11/19 02:22:28;;;;;;;;;;;;;;;-3.45;80.68;97929.11;420203;1302;99233;-40
2022/11/19 02:32:34;;;;;;;15.50;10.80;;;;;;;-3.38;80.71;97939.95;420210;1301;111338;-40
2022/11/19 02:42:44;;;;;;;27.30;16.90;;;;;;;-3.26;80.77;97944.57;420259;1298;109463;-41
2022/11/19 02:52:52;;;;;;;24.40;15.90;;;;;;;-3.24;80.88;97949.23;420214;1298;99230;-40
2022/11/19 03:23:47;;;;;;;25.10;15.20;;;;;;;-3.33;80.92;97979.77;420264;1300;111213;-41
2022/11/19 03:33:58;;;;;;;19.00;11.80;;;;;;;-3.43;80.52;97977.86;420317;1297;108196;-40
2022/11/19 03:44:03;;;;;;;16.00;11.70;;;;;;;-3.41;80.50;97992.64;420305;1286;98854;-40
2022/11/19 03:54:11;;;;;;;23.20;15.10;;;;;;;-3.40;80.56;97996.64;420188;1294;107874;-41
2022/11/19 04:14:44;;;;;;;23.20;14.50;;;;;;;-3.46;80.75;98033.98;420295;1292;111567;-41
2022/11/19 04:24:51;;;;;;;30.30;16.20;;;;;;;-3.45;80.87;98038.34;420332;1301;106979;-41
2022/11/19 04:34:58;;;;;;;24.00;14.60;;;;;;;-3.49;80.82;98048.48;420323;1290;98033;-40
2022/11/19 04:45:04;;;;;;;24.00;15.40;;;;;;;-3.53;80.80;98055.91;420348;1295;110725;-40
2022/11/19 04:55:12;;;;;;;21.20;14.30;;;;;;;-3.51;80.75;98073.08;420208;1301;99270;-39
2022/11/19 05:05:19;;;;;;;17.10;11.50;;;;;;;-3.35;80.78;98063.92;420244;1286;110202;-40
2022/11/19 05:15:26;;;;;;;22.90;13.50;;;;;;;-3.25;80.64;98068.25;420203;1284;108361;-40
2022/11/19 05:25:33;;;;;;;28.20;14.80;;;;;;;-3.25;80.69;98079.39;420350;1301;99361;-40
2022/11/19 05:35:40;;;;;;;33.10;18.30;;;;;;;-3.31;80.64;98089.65;420322;1300;111399;-40
2022/11/19 05:45:47;;;;;;;30.70;16.50;;;;;;;-3.49;80.41;98104.93;420204;1292;108973;-39
2022/11/19 05:55:54;;;;;;;31.10;17.70;;;;;;;-3.61;80.47;98126.67;420323;1284;98959;-40
2022/11/19 06:06:02;;;;;;;34.30;19.60;;;;;;;-3.73;80.57;98133.67;420321;1297;113015;-39
2022/11/19 06:16:08;;;;;;;38.40;20.80;;;;;;;-3.87;80.51;98152.33;420332;1302;107057;-41
2022/11/19 06:26:22;;;;;;;39.70;25.50;;;;;;;-3.89;80.78;98162.48;420236;1301;99257;-40
2022/11/19 06:36:29;;;;;;;26.50;18.70;;;;;;;-3.82;80.46;98175.38;420204;1298;107901;-39
2022/11/19 06:46:46;;;;;;;53.70;27.70;;;;;;;-3.77;80.68;98191.27;420424;1294;98603;-40
2022/11/19 06:56:53;;;;;;;57.20;30.90;;;;;;;-3.74;80.79;98203.42;420303;1301;111884;-41
2022/11/19 07:07:00;;;;;;;75.10;36.10;;;;;;;-3.82;80.66;98201.96;420304;1289;107892;-40
2022/11/19 07:17:08;;;;;;;70.50;34.70;;;;;;;-3.93;80.60;98210.08;420339;1292;99253;-42
2022/11/19 07:37:21;;;;;;;54.00;29.40;;;;;;;-2.03;82.17;98230.23;420315;1292;107676;-41
2022/11/19 07:47:28;;;;;;;53.00;27.40;;;;;;;0.21;81.55;98226.67;420320;1292;99454;-41
2022/11/19 07:57:35;;;;;;;35.70;21.60;;;;;;;1.47;80.73;98222.70;420173;1301;106653;-40
2022/11/19 08:07:43;;;;;;;36.90;23.50;;;;;;;2.25;80.16;98217.23;420341;1295;98870;-41
2022/11/19 08:28:15;;;;;;;23.50;12.70;;;;;;;2.85;78.69;98223.45;420286;1292;108030;-40
2022/11/19 08:38:19;;;;;;;22.20;14.60;;;;;;;1.30;77.18;98223.63;420357;1299;99249;-41
2022/11/19 08:48:27;;;;;;;33.80;18.20;;;;;;;0.36;77.25;98231.64;420453;1288;98032;-40
2022/11/19 08:58:34;;;;;;;22.00;14.30;;;;;;;0.21;76.96;98237.23;420476;1292;107397;-41
2022/11/19 09:08:43;;;;;;;25.40;14.70;;;;;;;-0.28;76.69;98248.55;420254;1295;99223;-40
2022/11/19 09:18:50;;;;;;;21.60;12.90;;;;;;;-0.64;76.36;98252.88;420418;1301;111605;-39
2022/11/19 09:28:57;;;;;;;26.70;15.40;;;;;;;-0.90;76.31;98269.41;420414;1301;108378;-39
2022/11/19 09:39:05;;;;;;;31.00;16.40;;;;;;;-0.91;75.97;98269.85;420226;1291;98034;-40
2022/11/19 09:49:14;;;;;;;31.80;18.00;;;;;;;-1.41;75.64;98275.58;420282;1294;112027;-41
2022/11/19 10:19:38;;;;;;;36.30;17.20;;;;;;;-1.92;75.71;98271.81;420433;1292;107200;-40
2022/11/19 10:29:50;;;;;;;30.80;15.20;;;;;;;-2.03;75.75;98277.71;420455;1292;99203;-40
2022/11/19 10:40:01;;;;;;;22.70;12.80;;;;;;;-1.62;75.81;98266.56;420510;1295;110705;-41
2022/11/19 10:50:09;;;;;;;21.00;11.00;;;;;;;-1.01;75.86;98256.58;420345;1283;106706;-41
2022/11/19 11:00:19;;;;;;;21.80;12.10;;;;;;;-0.52;75.84;98257.25;420323;1292;99298;-40
2022/11/19 11:10:47;;;;;;;16.90;11.30;;;;;;;-0.17;75.31;98258.44;420136;1301;334013;-40
2022/11/19 11:20:55;;;;;;;23.70;13.40;;;;;;;-0.40;74.66;98254.38;420434;1301;98078;-40
2022/11/19 11:31:01;;;;;;;26.20;14.60;;;;;;;-0.68;74.61;98252.95;420504;1291;111293;-40
2022/11/19 11:41:12;;;;;;;30.70;14.50;;;;;;;-0.99;74.33;98247.69;420360;1301;107932;-41
2022/11/19 11:51:40;;;;;;;19.80;11.00;;;;;;;-0.98;74.42;98243.79;420323;1295;99230;-40
2022/11/19 12:01:53;;;;;;;16.30;10.70;;;;;;;-0.69;74.13;98244.04;420426;1291;113375;-41
2022/11/19 12:12:04;;;;;;;21.60;11.20;;;;;;;-0.61;73.71;98243.71;420384;1301;106794;-43
2022/11/19 12:22:10;;;;;;;20.30;11.20;;;;;;;-0.51;73.36;98241.34;420474;1301;99109;-41
2022/11/19 12:32:21;;;;;;;22.00;11.80;;;;;;;-0.45;73.08;98249.72;420549;1292;107510;-39
2022/11/19 12:42:39;;;;;;;17.90;11.50;;;;;;;-0.67;72.56;98254.21;420511;1293;99287;-41
2022/11/19 13:03:25;;;;;;;51.10;21.20;;;;;;;-1.06;72.48;98256.43;420294;1292;108236;-39
2022/11/19 13:13:37;;;;;;;42.20;18.40;;;;;;;-1.11;72.54;98260.68;420393;1298;100179;-41
2022/11/19 13:23:47;;;;;;;32.90;16.00;;;;;;;-1.10;72.57;98260.16;420351;1294;108874;-41
2022/11/19 13:34:00;;;;;;;28.40;16.40;;;;;;;-0.94;72.86;98257.67;420403;1301;99248;-39
2022/11/19 13:54:39;;;;;;;30.10;14.00;;;;;;;-1.06;72.24;98267.65;420481;1294;107303;-40
2022/11/19 14:04:50;;;;;;;35.20;16.60;;;;;;;-1.30;72.23;98276.91;420501;1292;98039;-40
2022/11/19 14:36:12;;;;;;;105.00;38.00;;;;;;;-1.91;72.25;98291.73;420373;1292;110877;-41
2022/11/19 14:56:35;;;;;;;60.60;26.90;;;;;;;-2.40;72.22;98308.79;420507;1302;99289;-42
2022/11/19 15:06:44;;;;;;;71.50;34.00;;;;;;;-2.70;72.28;98312.66;420404;1301;106945;-42
2022/11/19 15:26:54;;;;;;;67.50;31.50;;;;;;;-3.17;72.59;98307.04;420448;1301;111798;-40
2022/11/19 15:37:02;;;;;;;51.50;28.40;;;;;;;-3.33;72.67;98299.14;420345;1301;109310;-41
2022/11/19 15:47:07;;;;;;;57.60;30.60;;;;;;;-3.45;72.68;98305.44;420475;1284;98055;-40
2022/11/19 15:57:19;;;;;;;118.20;46.40;;;;;;;-3.52;73.02;98310.27;420422;1305;107245;-41
2022/11/19 16:07:29;;;;;;;155.50;66.50;;;;;;;-3.69;73.39;98311.09;420494;1291;99604;-41
2022/11/19 16:17:35;;;;;;;148.70;64.60;;;;;;;-3.97;73.33;98304.81;420505;1301;110893;-41
2022/11/19 16:27:49;;;;;;;143.40;65.00;;;;;;;-4.15;73.52;98306.31;420371;1298;107590;-40
2022/11/19 16:37:58;;;;;;;163.30;73.30;;;;;;;-4.30;73.56;98303.58;420471;1301;99033;-40
2022/11/19 16:48:05;;;;;;;174.50;77.10;;;;;;;-4.44;73.62;98309.77;420425;1301;107599;-39
2022/11/19 16:58:14;;;;;;;154.30;70.90;;;;;;;-4.56;73.73;98313.27;420375;1304;99253;-41
2022/11/19 17:08:27;;;;;;;170.10;75.20;;;;;;;-4.69;73.88;98313.66;420527;1284;110930;-40
2022/11/19 17:18:36;;;;;;;147.00;74.70;;;;;;;-4.78;73.75;98307.02;420243;1308;107533;-41
2022/11/19 17:28:47;;;;;;;110.90;60.40;;;;;;;-4.74;73.90;98306.48;420230;1301;99275;-39
2022/11/19 17:49:02;;;;;;;179.80;79.20;;;;;;;-4.73;74.11;98316.73;420397;1301;99223;-39
2022/11/19 17:59:09;;;;;;;150.80;69.60;;;;;;;-4.81;74.33;98314.05;420296;1292;110594;-40
2022/11/19 18:09:15;;;;;;;165.80;72.80;;;;;;;-4.97;74.05;98315.18;420262;1299;108692;-40
2022/11/19 18:19:25;;;;;;;159.80;69.20;;;;;;;-5.10;74.23;98316.16;420464;1290;98841;-40
2022/11/19 18:29:32;;;;;;;128.00;66.20;;;;;;;-5.16;74.37;98319.62;420318;1298;107578;-39
2022/11/19 18:39:40;;;;;;;144.60;76.10;;;;;;;-5.12;74.44;98320.83;420409;1303;99342;-40
2022/11/19 18:49:47;;;;;;;143.50;69.60;;;;;;;-5.06;74.58;98315.45;420445;1292;110586;-40
2022/11/19 18:59:55;;;;;;;165.30;77.80;;;;;;;-5.10;74.52;98308.78;420261;1303;107348;-40
2022/11/19 19:10:02;;;;;;;217.30;96.40;;;;;;;-5.13;74.57;98310.28;420291;1307;98610;-39
2022/11/19 19:20:11;;;;;;;137.30;67.60;;;;;;;-5.26;74.59;98303.73;420287;1303;109482;-40
2022/11/19 19:30:19;;;;;;;141.70;71.20;;;;;;;-5.29;74.95;98314.83;420240;1299;98111;-42
2022/11/19 19:40:26;;;;;;;148.00;70.90;;;;;;;-5.29;74.98;98320.50;420171;1292;112028;-40
2022/11/19 19:50:33;;;;;;;145.50;78.00;;;;;;;-5.35;75.14;98323.41;420226;1301;110587;-41
2022/11/19 20:00:41;;;;;;;152.20;79.80;;;;;;;-5.44;75.06;98333.02;420197;1297;99227;-40
2022/11/19 20:10:48;;;;;;;169.90;87.60;;;;;;;-5.51;75.38;98337.38;420054;1306;108446;-40
2022/11/19 20:20:58;;;;;;;184.70;90.10;;;;;;;-5.44;75.26;98333.53;420076;1294;99265;-41
2022/11/19 20:31:03;;;;;;;200.00;97.80;;;;;;;-5.59;75.48;98340.48;420230;1298;112272;-41
2022/11/19 21:01:26;;;;;;;182.80;93.40;;;;;;;-6.02;75.42;98341.01;420433;1302;107814;-40
2022/11/19 21:11:37;;;;;;;179.30;95.80;;;;;;;-6.14;75.62;98337.08;420413;1290;99291;-40
2022/11/19 21:21:45;;;;;;;221.40;103.90;;;;;;;-6.19;75.69;98335.62;420158;1298;111395;-42
2022/11/19 21:31:51;;;;;;;198.60;101.10;;;;;;;-6.20;75.93;98332.48;420332;1292;109438;-40
2022/11/19 21:41:58;;;;;;;203.00;99.00;;;;;;;-6.16;76.06;98333.50;420298;1294;99266;-40
2022/11/19 21:52:04;;;;;;;212.80;101.10;;;;;;;-6.28;75.88;98340.52;420338;1301;107261;-39
2022/11/19 22:02:12;;;;;;;179.00;89.30;;;;;;;-6.45;75.92;98345.55;420302;1292;98042;-40
2022/11/19 22:12:20;;;;;;;170.10;86.90;;;;;;;-6.50;76.30;98335.20;420283;1292;112053;-40
2022/11/19 22:22:27;;;;;;;156.80;76.60;;;;;;;-6.49;76.37;98317.11;420365;1302;108302;-40
2022/11/19 22:32:35;;;;;;;159.10;78.90;;;;;;;-6.23;76.86;98333.88;420278;1301;98865;-40
2022/11/19 22:42:43;;;;;;;173.40;83.10;;;;;;;-6.14;76.64;98339.88;420324;1298;107969;-40
2022/11/19 23:02:56;;;;;;;199.90;90.80;;;;;;;-6.30;76.73;98335.73;420458;1294;112930;-40
2022/11/19 23:23:28;;;;;;;181.90;87.40;;;;;;;-6.47;76.79;98337.21;420296;1298;98121;-40
2022/11/19 23:33:36;;;;;;;196.80;93.50;;;;;;;-6.60;77.04;98340.02;420288;1294;108792;-43
2022/11/19 23:43:45;;;;;;;195.40;95.40;;;;;;;-6.61;77.19;98331.89;420265;1292;99110;-39
2022/11/19 23:53:53;;;;;;;201.00;93.70;;;;;;;-6.68;77.13;98322.66;420267;1292;111344;-41
